sensor_id;sensor_type;location;lat;lon;timestamp;temperature;humidity
18894;DHT22;9579;49.488;8.226;2023-05-10T00:02:36;15.80;99.90
18894;DHT22;9579;49.488;8.226;2023-05-10T00:05:26;15.70;99.90
18894;DHT22;9579;49.488;8.226;2023-05-10T00:08:13;15.80;99.90
18894;DHT22;9579;49.488;8.226;2023-05-10T00:11:02;15.70;99.90
18894;DHT22;9579;49.488;8.226;2023-05-10T00:13:49;15.80;99.90
18894;DHT22;9579;49.488;8.226;2023-05-10T00:16:44;15.70;99.90
18894;DHT22;9579;49.488;8.226;2023-05-10T00:19:31;15.70;99.90
18894;DHT22;9579;49.488;8.226;2023-05-10T00:22:26;15.70;99.90
18894;DHT22;9579;49.488;8.226;2023-05-10T00:25:22;15.70;99.90
18894;DHT22;9579;49.488;8.226;2023-05-10T00:28:19;15.70;99.90
18894;DHT22;9579;49.488;8.226;2023-05-10T00:31:06;15.70;99.90
18894;DHT22;9579;49.488;8.226;2023-05-10T00:33:58;15.70;99.90
18894;DHT22;9579;49.488;8.226;2023-05-10T00:36:45;15.70;99.90
18894;DHT22;9579;49.488;8.226;2023-05-10T00:39:32;15.60;99.90
18894;DHT22;9579;49.488;8.226;2023-05-10T00:42:19;15.60;99.90
18894;DHT22;9579;49.488;8.226;2023-05-10T00:45:08;15.60;99.90
18894;DHT22;9579;49.488;8.226;2023-05-10T00:47:55;15.60;99.90
18894;DHT22;9579;49.488;8.226;2023-05-10T00:50:43;15.60;99.90
18894;DHT22;9579;49.488;8.226;2023-05-10T00:53:31;15.60;99.90
18894;DHT22;9579;49.488;8.226;2023-05-10T00:56:18;15.60;99.90
18894;DHT22;9579;49.488;8.226;2023-05-10T00:59:08;15.60;99.90
18894;DHT22;9579;49.488;8.226;2023-05-10T01:01:57;15.60;99.90
18894;DHT22;9579;49.488;8.226;2023-05-10T01:04:44;15.60;99.90
18894;DHT22;9579;49.488;8.226;2023-05-10T01:07:32;15.60;99.90
18894;DHT22;9579;49.488;8.226;2023-05-10T01:10:19;15.60;99.90
18894;DHT22;9579;49.488;8.226;2023-05-10T01:13:03;15.60;99.90
18894;DHT22;9579;49.488;8.226;2023-05-10T01:16:00;15.50;99.90
18894;DHT22;9579;49.488;8.226;2023-05-10T01:18:51;15.70;99.90
18894;DHT22;9579;49.488;8.226;2023-05-10T01:21:43;15.70;99.90
18894;DHT22;9579;49.488;8.226;2023-05-10T01:35:48;15.60;99.90
18894;DHT22;9579;49.488;8.226;2023-05-10T01:38:42;15.50;99.90
18894;DHT22;9579;49.488;8.226;2023-05-10T01:41:39;15.60;99.90
18894;DHT22;9579;49.488;8.226;2023-05-10T01:44:34;15.50;99.90
18894;DHT22;9579;49.488;8.226;2023-05-10T01:47:30;15.50;99.90
18894;DHT22;9579;49.488;8.226;2023-05-10T01:50:24;15.50;99.90
18894;DHT22;9579;49.488;8.226;2023-05-10T01:56:52;15.40;99.90
18894;DHT22;9579;49.488;8.226;2023-05-10T01:59:45;15.40;99.90
18894;DHT22;9579;49.488;8.226;2023-05-10T02:02:39;15.50;99.90
18894;DHT22;9579;49.488;8.226;2023-05-10T02:05:29;15.60;99.90
18894;DHT22;9579;49.488;8.226;2023-05-10T02:08:20;15.50;99.90
18894;DHT22;9579;49.488;8.226;2023-05-10T02:11:11;15.50;99.90
18894;DHT22;9579;49.488;8.226;2023-05-10T02:14:00;15.50;99.90
18894;DHT22;9579;49.488;8.226;2023-05-10T02:16:50;15.50;99.90
18894;DHT22;9579;49.488;8.226;2023-05-10T02:19:40;15.60;99.90
18894;DHT22;9579;49.488;8.226;2023-05-10T02:22:28;15.60;99.90
18894;DHT22;9579;49.488;8.226;2023-05-10T02:25:18;15.60;99.90
18894;DHT22;9579;49.488;8.226;2023-05-10T02:28:07;15.60;99.90
18894;DHT22;9579;49.488;8.226;2023-05-10T02:30:53;15.60;99.90
18894;DHT22;9579;49.488;8.226;2023-05-10T02:33:41;15.60;99.90
18894;DHT22;9579;49.488;8.226;2023-05-10T02:36:38;15.50;99.90
18894;DHT22;9579;49.488;8.226;2023-05-10T02:39:27;15.40;99.90
18894;DHT22;9579;49.488;8.226;2023-05-10T02:42:26;15.40;99.90
18894;DHT22;9579;49.488;8.226;2023-05-10T02:45:21;15.40;99.90
18894;DHT22;9579;49.488;8.226;2023-05-10T02:48:09;15.40;99.90
18894;DHT22;9579;49.488;8.226;2023-05-10T02:51:02;15.30;99.90
18894;DHT22;9579;49.488;8.226;2023-05-10T02:53:47;15.50;99.90
18894;DHT22;9579;49.488;8.226;2023-05-10T03:06:39;15.30;99.90
18894;DHT22;9579;49.488;8.226;2023-05-10T03:09:23;15.30;99.90
18894;DHT22;9579;49.488;8.226;2023-05-10T03:18:17;15.20;99.90
18894;DHT22;9579;49.488;8.226;2023-05-10T03:21:07;15.30;99.90
18894;DHT22;9579;49.488;8.226;2023-05-10T03:23:59;15.30;99.90
18894;DHT22;9579;49.488;8.226;2023-05-10T03:26:54;15.30;99.90
18894;DHT22;9579;49.488;8.226;2023-05-10T03:29:43;15.30;99.90
18894;DHT22;9579;49.488;8.226;2023-05-10T03:32:32;15.30;99.90
18894;DHT22;9579;49.488;8.226;2023-05-10T03:35:20;15.40;99.90
18894;DHT22;9579;49.488;8.226;2023-05-10T03:38:06;15.30;99.90
18894;DHT22;9579;49.488;8.226;2023-05-10T03:41:01;15.40;99.90
18894;DHT22;9579;49.488;8.226;2023-05-10T03:43:49;15.20;99.90
18894;DHT22;9579;49.488;8.226;2023-05-10T03:46:36;15.30;99.90
18894;DHT22;9579;49.488;8.226;2023-05-10T03:49:23;15.30;99.90
18894;DHT22;9579;49.488;8.226;2023-05-10T03:52:07;15.20;99.90
18894;DHT22;9579;49.488;8.226;2023-05-10T03:54:54;15.20;99.90
18894;DHT22;9579;49.488;8.226;2023-05-10T03:57:43;15.20;99.90
18894;DHT22;9579;49.488;8.226;2023-05-10T04:00:30;15.10;99.90
18894;DHT22;9579;49.488;8.226;2023-05-10T04:03:17;15.20;99.90
18894;DHT22;9579;49.488;8.226;2023-05-10T04:06:05;15.10;99.90
18894;DHT22;9579;49.488;8.226;2023-05-10T04:08:54;15.10;99.90
18894;DHT22;9579;49.488;8.226;2023-05-10T04:11:42;15.10;99.90
18894;DHT22;9579;49.488;8.226;2023-05-10T04:14:37;15.00;99.90
18894;DHT22;9579;49.488;8.226;2023-05-10T04:17:24;15.20;99.90
18894;DHT22;9579;49.488;8.226;2023-05-10T04:23:53;15.10;99.90
18894;DHT22;9579;49.488;8.226;2023-05-10T04:26:41;15.10;99.90
18894;DHT22;9579;49.488;8.226;2023-05-10T04:29:28;15.20;99.90
18894;DHT22;9579;49.488;8.226;2023-05-10T04:32:16;15.20;99.90
18894;DHT22;9579;49.488;8.226;2023-05-10T04:35:13;15.20;99.90
18894;DHT22;9579;49.488;8.226;2023-05-10T04:38:00;15.20;99.90
18894;DHT22;9579;49.488;8.226;2023-05-10T04:40:47;15.20;99.90
18894;DHT22;9579;49.488;8.226;2023-05-10T04:43:41;15.20;99.90
18894;DHT22;9579;49.488;8.226;2023-05-10T04:46:28;15.20;99.90
18894;DHT22;9579;49.488;8.226;2023-05-10T04:49:17;15.20;99.90
18894;DHT22;9579;49.488;8.226;2023-05-10T04:52:04;15.20;99.90
18894;DHT22;9579;49.488;8.226;2023-05-10T04:54:52;15.20;99.90
18894;DHT22;9579;49.488;8.226;2023-05-10T04:57:39;15.20;99.90
18894;DHT22;9579;49.488;8.226;2023-05-10T05:00:26;15.30;99.90
18894;DHT22;9579;49.488;8.226;2023-05-10T05:03:13;15.40;99.90
18894;DHT22;9579;49.488;8.226;2023-05-10T05:06:08;15.40;99.90
18894;DHT22;9579;49.488;8.226;2023-05-10T05:08:55;15.40;99.90
18894;DHT22;9579;49.488;8.226;2023-05-10T05:11:42;15.50;99.90
18894;DHT22;9579;49.488;8.226;2023-05-10T05:14:29;15.50;99.90
18894;DHT22;9579;49.488;8.226;2023-05-10T05:17:16;15.60;99.90
18894;DHT22;9579;49.488;8.226;2023-05-10T05:20:04;15.60;99.90
18894;DHT22;9579;49.488;8.226;2023-05-10T05:22:52;15.70;99.90
18894;DHT22;9579;49.488;8.226;2023-05-10T05:25:40;15.80;99.90
18894;DHT22;9579;49.488;8.226;2023-05-10T05:28:27;15.90;99.90
18894;DHT22;9579;49.488;8.226;2023-05-10T05:31:18;15.90;99.90
18894;DHT22;9579;49.488;8.226;2023-05-10T05:34:05;15.90;99.90
18894;DHT22;9579;49.488;8.226;2023-05-10T05:36:52;16.00;99.90
18894;DHT22;9579;49.488;8.226;2023-05-10T05:39:41;16.00;99.90
18894;DHT22;9579;49.488;8.226;2023-05-10T05:42:28;16.20;99.90
18894;DHT22;9579;49.488;8.226;2023-05-10T05:45:15;16.30;99.90
18894;DHT22;9579;49.488;8.226;2023-05-10T05:48:02;16.40;99.90
18894;DHT22;9579;49.488;8.226;2023-05-10T05:50:50;16.50;99.90
18894;DHT22;9579;49.488;8.226;2023-05-10T05:53:37;16.50;99.90
18894;DHT22;9579;49.488;8.226;2023-05-10T05:56:25;16.60;99.90
18894;DHT22;9579;49.488;8.226;2023-05-10T05:59:12;16.70;99.90
18894;DHT22;9579;49.488;8.226;2023-05-10T06:01:59;16.70;99.90
18894;DHT22;9579;49.488;8.226;2023-05-10T06:04:46;16.90;99.90
18894;DHT22;9579;49.488;8.226;2023-05-10T06:07:33;16.90;99.90
18894;DHT22;9579;49.488;8.226;2023-05-10T06:10:20;17.10;99.90
18894;DHT22;9579;49.488;8.226;2023-05-10T06:13:09;17.20;99.90
18894;DHT22;9579;49.488;8.226;2023-05-10T06:15:56;17.50;99.90
18894;DHT22;9579;49.488;8.226;2023-05-10T06:18:43;17.40;99.90
18894;DHT22;9579;49.488;8.226;2023-05-10T06:21:30;17.70;99.90
18894;DHT22;9579;49.488;8.226;2023-05-10T06:24:17;17.80;99.90
18894;DHT22;9579;49.488;8.226;2023-05-10T06:27:04;17.80;99.90
18894;DHT22;9579;49.488;8.226;2023-05-10T06:29:54;17.80;99.90
18894;DHT22;9579;49.488;8.226;2023-05-10T06:32:41;17.70;99.90
18894;DHT22;9579;49.488;8.226;2023-05-10T06:35:29;17.70;99.90
18894;DHT22;9579;49.488;8.226;2023-05-10T06:38:17;17.40;99.90
18894;DHT22;9579;49.488;8.226;2023-05-10T06:41:04;17.30;99.90
18894;DHT22;9579;49.488;8.226;2023-05-10T06:43:51;17.40;99.90
18894;DHT22;9579;49.488;8.226;2023-05-10T06:46:39;17.10;99.90
18894;DHT22;9579;49.488;8.226;2023-05-10T06:49:27;17.10;99.90
18894;DHT22;9579;49.488;8.226;2023-05-10T06:52:14;17.10;99.90
18894;DHT22;9579;49.488;8.226;2023-05-10T06:55:01;17.10;99.90
18894;DHT22;9579;49.488;8.226;2023-05-10T06:57:48;17.10;99.90
18894;DHT22;9579;49.488;8.226;2023-05-10T07:00:36;17.20;99.90
18894;DHT22;9579;49.488;8.226;2023-05-10T07:03:27;17.30;99.90
18894;DHT22;9579;49.488;8.226;2023-05-10T07:06:14;17.60;99.90
18894;DHT22;9579;49.488;8.226;2023-05-10T07:09:01;17.80;99.90
18894;DHT22;9579;49.488;8.226;2023-05-10T07:11:48;17.90;99.90
18894;DHT22;9579;49.488;8.226;2023-05-10T07:14:35;18.00;99.90
18894;DHT22;9579;49.488;8.226;2023-05-10T07:17:24;18.10;99.90
18894;DHT22;9579;49.488;8.226;2023-05-10T07:20:13;18.10;99.90
18894;DHT22;9579;49.488;8.226;2023-05-10T07:23:00;18.10;99.90
18894;DHT22;9579;49.488;8.226;2023-05-10T07:25:48;18.10;99.90
18894;DHT22;9579;49.488;8.226;2023-05-10T07:28:37;18.10;99.90
18894;DHT22;9579;49.488;8.226;2023-05-10T07:31:24;18.10;99.90
18894;DHT22;9579;49.488;8.226;2023-05-10T07:34:11;18.10;99.90
18894;DHT22;9579;49.488;8.226;2023-05-10T07:37:00;18.10;99.90
18894;DHT22;9579;49.488;8.226;2023-05-10T07:39:47;18.00;99.90
18894;DHT22;9579;49.488;8.226;2023-05-10T07:42:34;17.90;99.90
18894;DHT22;9579;49.488;8.226;2023-05-10T07:45:22;17.90;99.90
18894;DHT22;9579;49.488;8.226;2023-05-10T07:48:09;18.00;99.90
18894;DHT22;9579;49.488;8.226;2023-05-10T07:50:59;18.10;99.90
18894;DHT22;9579;49.488;8.226;2023-05-10T07:53:47;18.30;99.90
18894;DHT22;9579;49.488;8.226;2023-05-10T07:56:34;18.50;99.90
18894;DHT22;9579;49.488;8.226;2023-05-10T07:59:21;18.70;99.90
18894;DHT22;9579;49.488;8.226;2023-05-10T08:02:08;18.80;99.90
18894;DHT22;9579;49.488;8.226;2023-05-10T08:04:55;18.90;99.90
18894;DHT22;9579;49.488;8.226;2023-05-10T08:07:43;18.90;99.90
18894;DHT22;9579;49.488;8.226;2023-05-10T08:10:31;18.70;99.90
18894;DHT22;9579;49.488;8.226;2023-05-10T08:13:18;18.60;99.90
18894;DHT22;9579;49.488;8.226;2023-05-10T08:16:06;18.20;99.90
18894;DHT22;9579;49.488;8.226;2023-05-10T08:18:53;18.10;99.90
18894;DHT22;9579;49.488;8.226;2023-05-10T08:21:40;18.00;99.90
18894;DHT22;9579;49.488;8.226;2023-05-10T08:24:28;17.90;99.90
18894;DHT22;9579;49.488;8.226;2023-05-10T08:27:16;17.80;99.90
18894;DHT22;9579;49.488;8.226;2023-05-10T08:30:04;17.70;99.90
18894;DHT22;9579;49.488;8.226;2023-05-10T08:32:51;17.80;99.90
18894;DHT22;9579;49.488;8.226;2023-05-10T08:35:38;17.90;99.90
18894;DHT22;9579;49.488;8.226;2023-05-10T08:38:25;18.00;99.90
18894;DHT22;9579;49.488;8.226;2023-05-10T08:41:13;18.10;99.90
18894;DHT22;9579;49.488;8.226;2023-05-10T08:44:03;18.20;99.90
18894;DHT22;9579;49.488;8.226;2023-05-10T08:46:53;18.30;99.90
18894;DHT22;9579;49.488;8.226;2023-05-10T08:49:41;18.40;99.90
18894;DHT22;9579;49.488;8.226;2023-05-10T08:52:30;18.50;99.90
18894;DHT22;9579;49.488;8.226;2023-05-10T08:55:18;18.80;99.90
18894;DHT22;9579;49.488;8.226;2023-05-10T08:58:05;19.10;99.90
18894;DHT22;9579;49.488;8.226;2023-05-10T09:00:54;19.30;99.90
18894;DHT22;9579;49.488;8.226;2023-05-10T09:03:41;19.20;99.90
18894;DHT22;9579;49.488;8.226;2023-05-10T09:06:28;19.20;99.90
18894;DHT22;9579;49.488;8.226;2023-05-10T09:09:16;18.80;99.90
18894;DHT22;9579;49.488;8.226;2023-05-10T09:12:07;18.80;99.90
18894;DHT22;9579;49.488;8.226;2023-05-10T09:14:58;18.50;99.90
18894;DHT22;9579;49.488;8.226;2023-05-10T09:17:49;18.30;99.90
18894;DHT22;9579;49.488;8.226;2023-05-10T09:20:36;18.10;99.90
18894;DHT22;9579;49.488;8.226;2023-05-10T09:23:23;17.90;99.90
18894;DHT22;9579;49.488;8.226;2023-05-10T09:26:17;17.90;99.90
18894;DHT22;9579;49.488;8.226;2023-05-10T09:29:08;17.80;99.90
18894;DHT22;9579;49.488;8.226;2023-05-10T09:31:55;17.80;99.90
18894;DHT22;9579;49.488;8.226;2023-05-10T09:34:43;17.80;99.90
18894;DHT22;9579;49.488;8.226;2023-05-10T09:37:30;17.80;99.90
18894;DHT22;9579;49.488;8.226;2023-05-10T09:40:19;17.90;99.90
18894;DHT22;9579;49.488;8.226;2023-05-10T09:43:07;17.90;99.90
18894;DHT22;9579;49.488;8.226;2023-05-10T09:45:56;17.90;99.90
18894;DHT22;9579;49.488;8.226;2023-05-10T09:48:44;17.90;99.90
18894;DHT22;9579;49.488;8.226;2023-05-10T09:51:34;17.70;99.90
18894;DHT22;9579;49.488;8.226;2023-05-10T09:54:21;17.70;99.90
18894;DHT22;9579;49.488;8.226;2023-05-10T09:57:18;17.50;99.90
18894;DHT22;9579;49.488;8.226;2023-05-10T10:00:07;17.30;99.90
18894;DHT22;9579;49.488;8.226;2023-05-10T10:02:56;17.30;99.90
18894;DHT22;9579;49.488;8.226;2023-05-10T10:05:44;17.30;99.90
18894;DHT22;9579;49.488;8.226;2023-05-10T10:08:35;17.40;99.90
18894;DHT22;9579;49.488;8.226;2023-05-10T10:11:23;17.50;99.90
18894;DHT22;9579;49.488;8.226;2023-05-10T10:14:11;17.60;99.90
18894;DHT22;9579;49.488;8.226;2023-05-10T10:17:00;17.80;99.90
18894;DHT22;9579;49.488;8.226;2023-05-10T10:19:48;18.00;99.90
18894;DHT22;9579;49.488;8.226;2023-05-10T10:22:36;18.40;99.90
18894;DHT22;9579;49.488;8.226;2023-05-10T10:25:25;18.60;99.90
18894;DHT22;9579;49.488;8.226;2023-05-10T10:28:22;18.90;99.90
18894;DHT22;9579;49.488;8.226;2023-05-10T10:31:17;19.00;99.90
18894;DHT22;9579;49.488;8.226;2023-05-10T10:34:11;19.10;99.90
18894;DHT22;9579;49.488;8.226;2023-05-10T10:37:04;19.10;99.00
18894;DHT22;9579;49.488;8.226;2023-05-10T10:39:52;19.10;99.50
18894;DHT22;9579;49.488;8.226;2023-05-10T10:42:47;19.00;99.80
18894;DHT22;9579;49.488;8.226;2023-05-10T10:45:39;18.90;99.90
18894;DHT22;9579;49.488;8.226;2023-05-10T10:48:26;18.80;99.90
18894;DHT22;9579;49.488;8.226;2023-05-10T10:51:14;18.70;99.90
18894;DHT22;9579;49.488;8.226;2023-05-10T10:54:09;18.60;99.90
18894;DHT22;9579;49.488;8.226;2023-05-10T10:57:11;18.60;99.90
18894;DHT22;9579;49.488;8.226;2023-05-10T11:03:23;18.60;99.90
18894;DHT22;9579;49.488;8.226;2023-05-10T11:06:11;18.60;99.10
18894;DHT22;9579;49.488;8.226;2023-05-10T11:08:58;18.70;99.20
18894;DHT22;9579;49.488;8.226;2023-05-10T11:11:50;18.60;99.20
18894;DHT22;9579;49.488;8.226;2023-05-10T11:14:37;18.70;99.20
18894;DHT22;9579;49.488;8.226;2023-05-10T11:17:26;18.80;99.40
18894;DHT22;9579;49.488;8.226;2023-05-10T11:20:15;18.90;99.50
18894;DHT22;9579;49.488;8.226;2023-05-10T11:23:13;19.00;99.30
18894;DHT22;9579;49.488;8.226;2023-05-10T11:26:01;19.10;99.30
18894;DHT22;9579;49.488;8.226;2023-05-10T11:28:48;19.10;98.90
18894;DHT22;9579;49.488;8.226;2023-05-10T11:31:42;19.00;98.70
18894;DHT22;9579;49.488;8.226;2023-05-10T11:34:30;19.10;98.60
18894;DHT22;9579;49.488;8.226;2023-05-10T11:37:20;19.00;97.60
18894;DHT22;9579;49.488;8.226;2023-05-10T11:40:08;18.90;97.40
18894;DHT22;9579;49.488;8.226;2023-05-10T11:42:56;18.90;97.80
18894;DHT22;9579;49.488;8.226;2023-05-10T11:45:43;18.70;98.10
18894;DHT22;9579;49.488;8.226;2023-05-10T11:48:31;18.90;98.00
18894;DHT22;9579;49.488;8.226;2023-05-10T11:51:20;18.70;97.80
18894;DHT22;9579;49.488;8.226;2023-05-10T11:54:10;18.80;97.60
18894;DHT22;9579;49.488;8.226;2023-05-10T11:56:58;19.00;98.00
18894;DHT22;9579;49.488;8.226;2023-05-10T11:59:45;18.90;97.30
18894;DHT22;9579;49.488;8.226;2023-05-10T12:02:32;19.00;97.60
18894;DHT22;9579;49.488;8.226;2023-05-10T12:05:19;19.00;98.30
18894;DHT22;9579;49.488;8.226;2023-05-10T12:08:21;19.00;98.20
18894;DHT22;9579;49.488;8.226;2023-05-10T12:11:10;19.10;98.70
18894;DHT22;9579;49.488;8.226;2023-05-10T12:13:57;19.10;98.40
18894;DHT22;9579;49.488;8.226;2023-05-10T12:16:45;19.00;98.80
18894;DHT22;9579;49.488;8.226;2023-05-10T12:19:37;19.00;98.90
18894;DHT22;9579;49.488;8.226;2023-05-10T12:22:24;19.00;99.20
18894;DHT22;9579;49.488;8.226;2023-05-10T12:25:11;19.00;98.70
18894;DHT22;9579;49.488;8.226;2023-05-10T12:28:03;19.10;98.70
18894;DHT22;9579;49.488;8.226;2023-05-10T12:30:53;19.20;98.20
18894;DHT22;9579;49.488;8.226;2023-05-10T12:33:41;19.30;98.30
18894;DHT22;9579;49.488;8.226;2023-05-10T12:36:29;19.40;97.30
18894;DHT22;9579;49.488;8.226;2023-05-10T12:39:17;19.40;97.90
18894;DHT22;9579;49.488;8.226;2023-05-10T12:42:04;19.60;97.50
18894;DHT22;9579;49.488;8.226;2023-05-10T12:44:56;19.80;96.20
18894;DHT22;9579;49.488;8.226;2023-05-10T12:47:43;20.00;95.90
18894;DHT22;9579;49.488;8.226;2023-05-10T12:50:30;20.30;95.10
18894;DHT22;9579;49.488;8.226;2023-05-10T12:53:17;20.30;94.90
18894;DHT22;9579;49.488;8.226;2023-05-10T12:56:05;20.40;95.10
18894;DHT22;9579;49.488;8.226;2023-05-10T12:58:52;20.40;93.40
18894;DHT22;9579;49.488;8.226;2023-05-10T13:01:40;20.50;93.40
18894;DHT22;9579;49.488;8.226;2023-05-10T13:04:27;20.70;93.50
18894;DHT22;9579;49.488;8.226;2023-05-10T13:07:14;20.90;93.50
18894;DHT22;9579;49.488;8.226;2023-05-10T13:10:01;21.20;92.40
18894;DHT22;9579;49.488;8.226;2023-05-10T13:12:48;21.60;92.40
18894;DHT22;9579;49.488;8.226;2023-05-10T13:15:35;22.00;92.40
18894;DHT22;9579;49.488;8.226;2023-05-10T13:18:24;22.30;91.80
18894;DHT22;9579;49.488;8.226;2023-05-10T13:21:11;22.30;91.00
18894;DHT22;9579;49.488;8.226;2023-05-10T13:23:58;22.50;91.30
18894;DHT22;9579;49.488;8.226;2023-05-10T13:26:46;22.60;90.70
18894;DHT22;9579;49.488;8.226;2023-05-10T13:29:34;22.60;89.90
18894;DHT22;9579;49.488;8.226;2023-05-10T13:32:21;22.50;90.10
18894;DHT22;9579;49.488;8.226;2023-05-10T13:35:09;22.50;90.00
18894;DHT22;9579;49.488;8.226;2023-05-10T13:37:56;22.40;88.80
18894;DHT22;9579;49.488;8.226;2023-05-10T13:40:43;22.30;88.10
18894;DHT22;9579;49.488;8.226;2023-05-10T13:43:30;22.30;88.80
18894;DHT22;9579;49.488;8.226;2023-05-10T13:46:17;22.20;89.00
18894;DHT22;9579;49.488;8.226;2023-05-10T13:49:05;22.10;89.40
18894;DHT22;9579;49.488;8.226;2023-05-10T13:51:53;22.10;90.30
18894;DHT22;9579;49.488;8.226;2023-05-10T13:54:41;22.20;87.30
18894;DHT22;9579;49.488;8.226;2023-05-10T13:57:28;22.10;89.00
18894;DHT22;9579;49.488;8.226;2023-05-10T14:00:16;22.00;89.50
18894;DHT22;9579;49.488;8.226;2023-05-10T14:03:03;21.90;87.40
18894;DHT22;9579;49.488;8.226;2023-05-10T14:05:52;22.10;89.20
18894;DHT22;9579;49.488;8.226;2023-05-10T14:08:40;22.40;87.70
18894;DHT22;9579;49.488;8.226;2023-05-10T14:11:27;22.60;86.40
18894;DHT22;9579;49.488;8.226;2023-05-10T14:14:14;22.60;88.40
18894;DHT22;9579;49.488;8.226;2023-05-10T14:17:01;22.80;84.00
18894;DHT22;9579;49.488;8.226;2023-05-10T14:19:48;22.60;85.40
18894;DHT22;9579;49.488;8.226;2023-05-10T14:22:35;22.50;83.40
18894;DHT22;9579;49.488;8.226;2023-05-10T14:25:23;22.30;83.40
18894;DHT22;9579;49.488;8.226;2023-05-10T14:28:10;22.30;86.50
18894;DHT22;9579;49.488;8.226;2023-05-10T14:30:58;22.30;85.20
18894;DHT22;9579;49.488;8.226;2023-05-10T14:33:45;22.30;84.60
18894;DHT22;9579;49.488;8.226;2023-05-10T14:36:32;22.20;84.60
18894;DHT22;9579;49.488;8.226;2023-05-10T14:39:19;22.20;82.70
18894;DHT22;9579;49.488;8.226;2023-05-10T14:42:07;22.30;86.20
18894;DHT22;9579;49.488;8.226;2023-05-10T14:44:54;22.50;82.90
18894;DHT22;9579;49.488;8.226;2023-05-10T14:47:41;22.50;84.00
18894;DHT22;9579;49.488;8.226;2023-05-10T14:50:28;22.60;81.90
18894;DHT22;9579;49.488;8.226;2023-05-10T14:53:16;22.70;81.40
18894;DHT22;9579;49.488;8.226;2023-05-10T14:56:03;22.90;82.50
18894;DHT22;9579;49.488;8.226;2023-05-10T14:58:52;23.20;81.20
18894;DHT22;9579;49.488;8.226;2023-05-10T15:01:39;23.60;81.90
18894;DHT22;9579;49.488;8.226;2023-05-10T15:04:27;24.00;78.70
18894;DHT22;9579;49.488;8.226;2023-05-10T15:07:14;24.20;77.00
18894;DHT22;9579;49.488;8.226;2023-05-10T15:10:03;24.20;78.50
18894;DHT22;9579;49.488;8.226;2023-05-10T15:12:51;24.40;75.70
18894;DHT22;9579;49.488;8.226;2023-05-10T15:15:39;24.40;75.70
18894;DHT22;9579;49.488;8.226;2023-05-10T15:18:26;24.30;76.20
18894;DHT22;9579;49.488;8.226;2023-05-10T15:21:13;24.20;76.30
18894;DHT22;9579;49.488;8.226;2023-05-10T15:24:00;24.00;78.10
18894;DHT22;9579;49.488;8.226;2023-05-10T15:26:47;24.00;77.30
18894;DHT22;9579;49.488;8.226;2023-05-10T15:29:34;23.90;75.80
18894;DHT22;9579;49.488;8.226;2023-05-10T15:32:23;23.50;76.00
18894;DHT22;9579;49.488;8.226;2023-05-10T15:35:10;23.00;77.20
18894;DHT22;9579;49.488;8.226;2023-05-10T15:37:57;22.70;79.10
18894;DHT22;9579;49.488;8.226;2023-05-10T15:40:44;22.30;80.50
18894;DHT22;9579;49.488;8.226;2023-05-10T15:43:31;22.20;78.70
18894;DHT22;9579;49.488;8.226;2023-05-10T15:46:18;22.20;79.70
18894;DHT22;9579;49.488;8.226;2023-05-10T15:49:07;22.30;80.40
18894;DHT22;9579;49.488;8.226;2023-05-10T15:51:54;22.20;80.50
18894;DHT22;9579;49.488;8.226;2023-05-10T15:54:41;22.20;83.50
18894;DHT22;9579;49.488;8.226;2023-05-10T15:57:28;22.30;80.10
18894;DHT22;9579;49.488;8.226;2023-05-10T16:00:15;22.30;79.30
18894;DHT22;9579;49.488;8.226;2023-05-10T16:03:03;22.10;80.00
18894;DHT22;9579;49.488;8.226;2023-05-10T16:05:52;22.00;82.30
18894;DHT22;9579;49.488;8.226;2023-05-10T16:08:39;21.80;80.60
18894;DHT22;9579;49.488;8.226;2023-05-10T16:11:26;21.80;80.50
18894;DHT22;9579;49.488;8.226;2023-05-10T16:14:13;21.70;81.10
18894;DHT22;9579;49.488;8.226;2023-05-10T16:17:00;21.60;81.10
18894;DHT22;9579;49.488;8.226;2023-05-10T16:19:48;21.40;81.30
18894;DHT22;9579;49.488;8.226;2023-05-10T16:22:37;21.30;81.30
18894;DHT22;9579;49.488;8.226;2023-05-10T16:25:24;21.20;81.90
18894;DHT22;9579;49.488;8.226;2023-05-10T16:28:11;21.20;83.60
18894;DHT22;9579;49.488;8.226;2023-05-10T16:30:58;21.10;81.80
18894;DHT22;9579;49.488;8.226;2023-05-10T16:33:45;20.90;82.70
18894;DHT22;9579;49.488;8.226;2023-05-10T16:36:32;20.90;83.70
18894;DHT22;9579;49.488;8.226;2023-05-10T16:39:20;20.90;83.70
18894;DHT22;9579;49.488;8.226;2023-05-10T16:42:07;21.00;83.80
18894;DHT22;9579;49.488;8.226;2023-05-10T16:44:54;20.90;82.60
18894;DHT22;9579;49.488;8.226;2023-05-10T16:47:41;20.80;84.00
18894;DHT22;9579;49.488;8.226;2023-05-10T16:50:28;20.70;85.80
18894;DHT22;9579;49.488;8.226;2023-05-10T16:53:16;20.70;84.40
18894;DHT22;9579;49.488;8.226;2023-05-10T16:56:04;20.60;85.40
18894;DHT22;9579;49.488;8.226;2023-05-10T16:58:51;20.60;84.90
18894;DHT22;9579;49.488;8.226;2023-05-10T17:01:38;20.60;85.00
18894;DHT22;9579;49.488;8.226;2023-05-10T17:04:25;20.60;85.20
18894;DHT22;9579;49.488;8.226;2023-05-10T17:07:13;20.50;86.80
18894;DHT22;9579;49.488;8.226;2023-05-10T17:10:00;20.50;87.20
18894;DHT22;9579;49.488;8.226;2023-05-10T17:12:48;20.50;87.30
18894;DHT22;9579;49.488;8.226;2023-05-10T17:15:36;20.50;87.70
18894;DHT22;9579;49.488;8.226;2023-05-10T17:18:23;20.50;88.00
18894;DHT22;9579;49.488;8.226;2023-05-10T17:21:11;20.50;88.50
18894;DHT22;9579;49.488;8.226;2023-05-10T17:23:58;20.50;86.60
18894;DHT22;9579;49.488;8.226;2023-05-10T17:26:45;20.40;88.10
18894;DHT22;9579;49.488;8.226;2023-05-10T17:29:33;20.40;87.10
18894;DHT22;9579;49.488;8.226;2023-05-10T17:32:20;20.40;86.90
18894;DHT22;9579;49.488;8.226;2023-05-10T17:35:07;20.30;85.80
18894;DHT22;9579;49.488;8.226;2023-05-10T17:37:55;20.20;85.40
18894;DHT22;9579;49.488;8.226;2023-05-10T17:40:42;20.20;85.10
18894;DHT22;9579;49.488;8.226;2023-05-10T17:43:29;20.00;85.80
18894;DHT22;9579;49.488;8.226;2023-05-10T17:46:17;20.00;86.10
18894;DHT22;9579;49.488;8.226;2023-05-10T17:49:04;20.00;86.90
18894;DHT22;9579;49.488;8.226;2023-05-10T17:51:51;19.90;85.90
18894;DHT22;9579;49.488;8.226;2023-05-10T17:54:38;19.90;86.50
18894;DHT22;9579;49.488;8.226;2023-05-10T17:57:25;19.90;86.60
18894;DHT22;9579;49.488;8.226;2023-05-10T18:00:14;19.80;87.20
18894;DHT22;9579;49.488;8.226;2023-05-10T18:03:03;19.70;87.10
18894;DHT22;9579;49.488;8.226;2023-05-10T18:05:50;19.70;86.90
18894;DHT22;9579;49.488;8.226;2023-05-10T18:08:38;19.60;87.10
18894;DHT22;9579;49.488;8.226;2023-05-10T18:11:25;19.60;88.10
18894;DHT22;9579;49.488;8.226;2023-05-10T18:14:12;19.60;88.10
18894;DHT22;9579;49.488;8.226;2023-05-10T18:16:59;19.50;88.10
18894;DHT22;9579;49.488;8.226;2023-05-10T18:19:47;19.50;88.50
18894;DHT22;9579;49.488;8.226;2023-05-10T18:22:35;19.40;88.80
18894;DHT22;9579;49.488;8.226;2023-05-10T18:25:22;19.40;89.00
18894;DHT22;9579;49.488;8.226;2023-05-10T18:28:09;19.30;89.50
18894;DHT22;9579;49.488;8.226;2023-05-10T18:30:56;19.20;90.00
18894;DHT22;9579;49.488;8.226;2023-05-10T18:33:43;19.00;90.10
18894;DHT22;9579;49.488;8.226;2023-05-10T18:36:32;18.90;90.50
18894;DHT22;9579;49.488;8.226;2023-05-10T18:39:19;18.80;90.60